Terminal Aerodrome Forecast
Issued by NWS

Home | Current Version | Previous Version | Text Only | Print | Product List | Glossary On
Versions: 1 2 3 4 5 6 7 8 9 10 11 12 13 14 15 16 17 18 19 20 21 22 23 24 25 26 27 28 29 30 31 32 33 34 35
000
FTUS41 KBUF 211100
TAFIAG
TAF
KIAG 211138Z 2112/2212 30006KT 4SM BR VCSH OVC015
     FM211400 35008KT 6SM -SHRA BR OVC012
     FM212300 02012KT 6SM -SHRA BR OVC012
     FM220600 02013KT 6SM -RADZ BR BKN012=

USA.gov is the U.S. government's official web portal to all federal, state and local government web resources and services.